sensor_id;sensor_type;location;lat;lon;timestamp;P1;durP1;ratioP1;P2;durP2;ratioP2
830;SDS011;397;50.564;7.272;2022-09-21T00:01:22;6.90;;;5.47;;
830;SDS011;397;50.564;7.272;2022-09-21T00:03:52;6.53;;;5.10;;
830;SDS011;397;50.564;7.272;2022-09-21T00:06:22;8.00;;;5.83;;
830;SDS011;397;50.564;7.272;2022-09-21T00:08:51;8.07;;;7.07;;
830;SDS011;397;50.564;7.272;2022-09-21T00:11:25;7.57;;;5.80;;
830;SDS011;397;50.564;7.272;2022-09-21T00:13:54;10.60;;;6.13;;
830;SDS011;397;50.564;7.272;2022-09-21T00:16:29;14.60;;;7.53;;
830;SDS011;397;50.564;7.272;2022-09-21T00:18:59;8.70;;;7.43;;
830;SDS011;397;50.564;7.272;2022-09-21T00:21:27;9.33;;;7.10;;
830;SDS011;397;50.564;7.272;2022-09-21T00:23:55;9.47;;;7.20;;
830;SDS011;397;50.564;7.272;2022-09-21T00:26:25;6.90;;;5.40;;
830;SDS011;397;50.564;7.272;2022-09-21T00:28:53;9.93;;;5.50;;
830;SDS011;397;50.564;7.272;2022-09-21T00:31:23;6.50;;;4.97;;
830;SDS011;397;50.564;7.272;2022-09-21T00:33:51;7.30;;;4.40;;
830;SDS011;397;50.564;7.272;2022-09-21T00:36:21;6.13;;;3.10;;
830;SDS011;397;50.564;7.272;2022-09-21T00:38:55;6.63;;;3.13;;
830;SDS011;397;50.564;7.272;2022-09-21T00:41:19;6.17;;;4.23;;
830;SDS011;397;50.564;7.272;2022-09-21T00:43:48;5.23;;;4.03;;
830;SDS011;397;50.564;7.272;2022-09-21T00:46:35;7.33;;;4.20;;
830;SDS011;397;50.564;7.272;2022-09-21T00:49:07;11.53;;;4.17;;
830;SDS011;397;50.564;7.272;2022-09-21T00:51:35;10.67;;;4.77;;
830;SDS011;397;50.564;7.272;2022-09-21T00:54:04;10.20;;;5.60;;
830;SDS011;397;50.564;7.272;2022-09-21T00:56:34;8.37;;;5.63;;
830;SDS011;397;50.564;7.272;2022-09-21T00:59:03;12.03;;;6.57;;
830;SDS011;397;50.564;7.272;2022-09-21T01:01:32;8.20;;;5.50;;
830;SDS011;397;50.564;7.272;2022-09-21T01:04:01;8.20;;;5.93;;
830;SDS011;397;50.564;7.272;2022-09-21T01:06:30;16.70;;;6.40;;
830;SDS011;397;50.564;7.272;2022-09-21T01:08:59;6.30;;;5.40;;
830;SDS011;397;50.564;7.272;2022-09-21T01:17:09;7.67;;;6.70;;
830;SDS011;397;50.564;7.272;2022-09-21T01:25:18;6.87;;;5.40;;
830;SDS011;397;50.564;7.272;2022-09-21T01:30:31;7.97;;;5.20;;
830;SDS011;397;50.564;7.272;2022-09-21T01:33:04;8.43;;;5.60;;
830;SDS011;397;50.564;7.272;2022-09-21T01:35:35;8.10;;;5.43;;
830;SDS011;397;50.564;7.272;2022-09-21T01:38:05;11.83;;;7.23;;
830;SDS011;397;50.564;7.272;2022-09-21T01:40:50;11.30;;;6.60;;
830;SDS011;397;50.564;7.272;2022-09-21T01:43:26;10.40;;;7.13;;
830;SDS011;397;50.564;7.272;2022-09-21T01:45:51;20.33;;;8.73;;
830;SDS011;397;50.564;7.272;2022-09-21T01:48:21;8.17;;;6.10;;
830;SDS011;397;50.564;7.272;2022-09-21T01:50:51;7.03;;;4.77;;
830;SDS011;397;50.564;7.272;2022-09-21T01:53:21;21.00;;;7.53;;
830;SDS011;397;50.564;7.272;2022-09-21T01:55:57;7.13;;;6.00;;
830;SDS011;397;50.564;7.272;2022-09-21T01:58:29;9.33;;;6.50;;
830;SDS011;397;50.564;7.272;2022-09-21T02:00:57;12.60;;;7.73;;
830;SDS011;397;50.564;7.272;2022-09-21T02:03:39;20.77;;;9.10;;
830;SDS011;397;50.564;7.272;2022-09-21T02:06:11;15.47;;;8.47;;
830;SDS011;397;50.564;7.272;2022-09-21T02:08:40;44.47;;;11.63;;
830;SDS011;397;50.564;7.272;2022-09-21T02:11:09;8.70;;;7.80;;
830;SDS011;397;50.564;7.272;2022-09-21T02:13:39;28.93;;;9.80;;
830;SDS011;397;50.564;7.272;2022-09-21T02:21:37;6.53;;;5.83;;
830;SDS011;397;50.564;7.272;2022-09-21T02:24:17;8.90;;;5.33;;
830;SDS011;397;50.564;7.272;2022-09-21T02:29:50;10.67;;;7.77;;
830;SDS011;397;50.564;7.272;2022-09-21T02:32:30;34.67;;;9.73;;
830;SDS011;397;50.564;7.272;2022-09-21T02:35:02;79.87;;;14.23;;
830;SDS011;397;50.564;7.272;2022-09-21T02:37:36;23.17;;;10.57;;
830;SDS011;397;50.564;7.272;2022-09-21T02:40:28;26.73;;;10.67;;
830;SDS011;397;50.564;7.272;2022-09-21T02:43:05;46.37;;;11.07;;
830;SDS011;397;50.564;7.272;2022-09-21T02:45:37;35.40;;;10.10;;
830;SDS011;397;50.564;7.272;2022-09-21T02:48:11;14.47;;;7.90;;
830;SDS011;397;50.564;7.272;2022-09-21T02:50:42;26.40;;;8.43;;
830;SDS011;397;50.564;7.272;2022-09-21T02:53:19;11.13;;;6.97;;
830;SDS011;397;50.564;7.272;2022-09-21T02:55:44;9.57;;;6.80;;
830;SDS011;397;50.564;7.272;2022-09-21T02:58:14;6.00;;;5.40;;
830;SDS011;397;50.564;7.272;2022-09-21T03:00:42;8.20;;;6.73;;
830;SDS011;397;50.564;7.272;2022-09-21T03:03:13;7.03;;;6.23;;
830;SDS011;397;50.564;7.272;2022-09-21T03:05:54;11.77;;;7.30;;
830;SDS011;397;50.564;7.272;2022-09-21T03:08:19;8.27;;;6.70;;
830;SDS011;397;50.564;7.272;2022-09-21T03:10:47;6.93;;;6.23;;
830;SDS011;397;50.564;7.272;2022-09-21T03:13:15;12.00;;;7.10;;
830;SDS011;397;50.564;7.272;2022-09-21T03:15:43;8.70;;;7.30;;
830;SDS011;397;50.564;7.272;2022-09-21T03:18:12;8.00;;;7.20;;
830;SDS011;397;50.564;7.272;2022-09-21T03:20:42;10.90;;;7.07;;
830;SDS011;397;50.564;7.272;2022-09-21T03:23:12;9.30;;;7.20;;
830;SDS011;397;50.564;7.272;2022-09-21T03:25:42;10.63;;;7.70;;
830;SDS011;397;50.564;7.272;2022-09-21T03:28:11;12.20;;;7.53;;
830;SDS011;397;50.564;7.272;2022-09-21T03:30:39;11.53;;;7.93;;
830;SDS011;397;50.564;7.272;2022-09-21T03:33:07;12.97;;;7.50;;
830;SDS011;397;50.564;7.272;2022-09-21T03:35:34;8.47;;;6.57;;
830;SDS011;397;50.564;7.272;2022-09-21T03:38:02;9.60;;;6.70;;
830;SDS011;397;50.564;7.272;2022-09-21T03:40:30;9.40;;;7.27;;
830;SDS011;397;50.564;7.272;2022-09-21T03:42:58;12.13;;;7.50;;
830;SDS011;397;50.564;7.272;2022-09-21T03:45:26;9.77;;;6.90;;
830;SDS011;397;50.564;7.272;2022-09-21T03:47:54;11.17;;;7.10;;
830;SDS011;397;50.564;7.272;2022-09-21T03:50:23;10.87;;;6.70;;
830;SDS011;397;50.564;7.272;2022-09-21T03:52:53;10.43;;;7.03;;
830;SDS011;397;50.564;7.272;2022-09-21T03:55:24;12.73;;;7.70;;
830;SDS011;397;50.564;7.272;2022-09-21T03:57:52;7.63;;;6.83;;
830;SDS011;397;50.564;7.272;2022-09-21T04:00:20;20.03;;;8.60;;
830;SDS011;397;50.564;7.272;2022-09-21T04:02:48;31.10;;;11.67;;
830;SDS011;397;50.564;7.272;2022-09-21T04:05:15;26.53;;;8.10;;
830;SDS011;397;50.564;7.272;2022-09-21T04:07:43;37.67;;;11.20;;
830;SDS011;397;50.564;7.272;2022-09-21T04:10:12;15.00;;;8.03;;
830;SDS011;397;50.564;7.272;2022-09-21T04:12:42;18.10;;;7.73;;
830;SDS011;397;50.564;7.272;2022-09-21T04:15:15;11.23;;;8.27;;
830;SDS011;397;50.564;7.272;2022-09-21T04:17:47;29.47;;;7.93;;
830;SDS011;397;50.564;7.272;2022-09-21T04:20:19;14.73;;;7.03;;
830;SDS011;397;50.564;7.272;2022-09-21T04:22:47;21.10;;;9.10;;
830;SDS011;397;50.564;7.272;2022-09-21T04:25:16;10.00;;;7.50;;
830;SDS011;397;50.564;7.272;2022-09-21T04:27:43;47.17;;;13.10;;
830;SDS011;397;50.564;7.272;2022-09-21T04:30:11;9.30;;;7.60;;
830;SDS011;397;50.564;7.272;2022-09-21T04:32:41;10.27;;;7.87;;
830;SDS011;397;50.564;7.272;2022-09-21T04:35:08;9.50;;;8.27;;
830;SDS011;397;50.564;7.272;2022-09-21T04:37:36;11.30;;;7.43;;
830;SDS011;397;50.564;7.272;2022-09-21T04:40:03;9.37;;;7.10;;
830;SDS011;397;50.564;7.272;2022-09-21T04:42:32;10.30;;;8.27;;
830;SDS011;397;50.564;7.272;2022-09-21T04:44:59;12.43;;;7.23;;
830;SDS011;397;50.564;7.272;2022-09-21T04:47:30;14.50;;;7.87;;
830;SDS011;397;50.564;7.272;2022-09-21T04:49:58;10.97;;;8.03;;
830;SDS011;397;50.564;7.272;2022-09-21T04:52:25;10.60;;;7.57;;
830;SDS011;397;50.564;7.272;2022-09-21T04:54:53;10.80;;;7.80;;
830;SDS011;397;50.564;7.272;2022-09-21T04:57:21;13.83;;;9.33;;
830;SDS011;397;50.564;7.272;2022-09-21T04:59:48;15.27;;;9.53;;
830;SDS011;397;50.564;7.272;2022-09-21T05:02:16;15.70;;;8.63;;
830;SDS011;397;50.564;7.272;2022-09-21T05:04:43;15.57;;;9.87;;
830;SDS011;397;50.564;7.272;2022-09-21T05:07:11;15.63;;;9.43;;
830;SDS011;397;50.564;7.272;2022-09-21T05:09:38;15.93;;;9.00;;
830;SDS011;397;50.564;7.272;2022-09-21T05:12:24;11.43;;;8.03;;
830;SDS011;397;50.564;7.272;2022-09-21T05:14:51;14.40;;;9.63;;
830;SDS011;397;50.564;7.272;2022-09-21T05:17:20;13.43;;;8.53;;
830;SDS011;397;50.564;7.272;2022-09-21T05:19:49;12.97;;;9.20;;
830;SDS011;397;50.564;7.272;2022-09-21T05:22:18;14.80;;;8.80;;
830;SDS011;397;50.564;7.272;2022-09-21T05:24:46;12.60;;;8.80;;
830;SDS011;397;50.564;7.272;2022-09-21T05:27:13;11.43;;;8.60;;
830;SDS011;397;50.564;7.272;2022-09-21T05:29:41;12.83;;;10.60;;
830;SDS011;397;50.564;7.272;2022-09-21T05:34:52;10.03;;;7.97;;
830;SDS011;397;50.564;7.272;2022-09-21T05:40:34;18.17;;;9.10;;
830;SDS011;397;50.564;7.272;2022-09-21T05:43:02;12.50;;;9.40;;
830;SDS011;397;50.564;7.272;2022-09-21T05:45:30;12.97;;;9.67;;
830;SDS011;397;50.564;7.272;2022-09-21T05:48:33;11.53;;;9.57;;
830;SDS011;397;50.564;7.272;2022-09-21T05:50:52;13.97;;;9.37;;
830;SDS011;397;50.564;7.272;2022-09-21T05:56:33;16.20;;;12.07;;
830;SDS011;397;50.564;7.272;2022-09-21T05:59:11;45.20;;;14.43;;
830;SDS011;397;50.564;7.272;2022-09-21T06:01:54;19.50;;;11.17;;
830;SDS011;397;50.564;7.272;2022-09-21T06:04:23;99.73;;;20.37;;
830;SDS011;397;50.564;7.272;2022-09-21T06:06:51;11.83;;;10.10;;
830;SDS011;397;50.564;7.272;2022-09-21T06:09:18;16.63;;;10.63;;
830;SDS011;397;50.564;7.272;2022-09-21T06:11:46;26.80;;;10.97;;
830;SDS011;397;50.564;7.272;2022-09-21T06:14:14;15.87;;;11.23;;
830;SDS011;397;50.564;7.272;2022-09-21T06:16:42;16.40;;;11.20;;
830;SDS011;397;50.564;7.272;2022-09-21T06:19:10;16.27;;;12.07;;
830;SDS011;397;50.564;7.272;2022-09-21T06:21:38;14.13;;;10.93;;
830;SDS011;397;50.564;7.272;2022-09-21T06:24:05;20.77;;;12.97;;
830;SDS011;397;50.564;7.272;2022-09-21T06:26:33;17.47;;;14.10;;
830;SDS011;397;50.564;7.272;2022-09-21T06:29:01;25.17;;;16.27;;
830;SDS011;397;50.564;7.272;2022-09-21T06:31:28;19.63;;;13.50;;
830;SDS011;397;50.564;7.272;2022-09-21T06:33:56;16.60;;;12.67;;
830;SDS011;397;50.564;7.272;2022-09-21T06:36:23;14.10;;;11.00;;
830;SDS011;397;50.564;7.272;2022-09-21T06:38:51;13.33;;;9.87;;
830;SDS011;397;50.564;7.272;2022-09-21T06:41:18;12.30;;;10.20;;
830;SDS011;397;50.564;7.272;2022-09-21T06:43:46;11.97;;;9.77;;
830;SDS011;397;50.564;7.272;2022-09-21T06:46:13;16.17;;;11.50;;
830;SDS011;397;50.564;7.272;2022-09-21T06:48:41;15.10;;;10.97;;
830;SDS011;397;50.564;7.272;2022-09-21T06:51:08;12.63;;;11.30;;
830;SDS011;397;50.564;7.272;2022-09-21T06:53:36;17.90;;;12.87;;
830;SDS011;397;50.564;7.272;2022-09-21T06:56:04;21.63;;;13.70;;
830;SDS011;397;50.564;7.272;2022-09-21T06:58:33;22.17;;;14.20;;
830;SDS011;397;50.564;7.272;2022-09-21T07:01:14;19.47;;;13.83;;
830;SDS011;397;50.564;7.272;2022-09-21T07:03:39;23.00;;;13.97;;
830;SDS011;397;50.564;7.272;2022-09-21T07:06:09;21.83;;;15.33;;
830;SDS011;397;50.564;7.272;2022-09-21T07:08:38;20.47;;;14.30;;
830;SDS011;397;50.564;7.272;2022-09-21T07:11:06;23.15;;;13.75;;
830;SDS011;397;50.564;7.272;2022-09-21T07:13:34;20.27;;;14.70;;
830;SDS011;397;50.564;7.272;2022-09-21T07:16:02;19.60;;;13.93;;
830;SDS011;397;50.564;7.272;2022-09-21T07:18:37;21.37;;;13.27;;
830;SDS011;397;50.564;7.272;2022-09-21T07:21:08;13.47;;;11.47;;
830;SDS011;397;50.564;7.272;2022-09-21T07:23:37;16.83;;;11.60;;
830;SDS011;397;50.564;7.272;2022-09-21T07:26:08;14.67;;;11.80;;
830;SDS011;397;50.564;7.272;2022-09-21T07:28:37;16.30;;;13.13;;
830;SDS011;397;50.564;7.272;2022-09-21T07:31:11;17.73;;;14.33;;
830;SDS011;397;50.564;7.272;2022-09-21T07:33:36;16.00;;;12.93;;
830;SDS011;397;50.564;7.272;2022-09-21T07:36:04;18.80;;;14.43;;
830;SDS011;397;50.564;7.272;2022-09-21T07:38:34;18.43;;;15.00;;
830;SDS011;397;50.564;7.272;2022-09-21T07:41:05;18.90;;;13.70;;
830;SDS011;397;50.564;7.272;2022-09-21T07:43:33;23.07;;;15.83;;
830;SDS011;397;50.564;7.272;2022-09-21T07:46:03;22.50;;;15.77;;
830;SDS011;397;50.564;7.272;2022-09-21T07:48:31;27.83;;;17.97;;
830;SDS011;397;50.564;7.272;2022-09-21T07:51:05;23.90;;;16.30;;
830;SDS011;397;50.564;7.272;2022-09-21T07:53:35;24.90;;;16.80;;
830;SDS011;397;50.564;7.272;2022-09-21T07:56:04;22.33;;;15.70;;
830;SDS011;397;50.564;7.272;2022-09-21T07:58:34;24.67;;;17.17;;
830;SDS011;397;50.564;7.272;2022-09-21T08:01:20;30.63;;;20.60;;
830;SDS011;397;50.564;7.272;2022-09-21T08:03:49;31.70;;;19.77;;
830;SDS011;397;50.564;7.272;2022-09-21T08:06:17;26.67;;;17.37;;
830;SDS011;397;50.564;7.272;2022-09-21T08:08:45;29.20;;;18.50;;
830;SDS011;397;50.564;7.272;2022-09-21T08:11:15;26.60;;;18.07;;
830;SDS011;397;50.564;7.272;2022-09-21T08:13:45;26.40;;;19.47;;
830;SDS011;397;50.564;7.272;2022-09-21T08:16:13;22.43;;;18.90;;
830;SDS011;397;50.564;7.272;2022-09-21T08:18:41;29.13;;;20.43;;
830;SDS011;397;50.564;7.272;2022-09-21T08:21:09;24.83;;;18.23;;
830;SDS011;397;50.564;7.272;2022-09-21T08:23:37;28.10;;;20.10;;
830;SDS011;397;50.564;7.272;2022-09-21T08:26:09;28.50;;;18.77;;
830;SDS011;397;50.564;7.272;2022-09-21T08:28:39;30.63;;;19.40;;
830;SDS011;397;50.564;7.272;2022-09-21T08:31:08;26.00;;;20.37;;
830;SDS011;397;50.564;7.272;2022-09-21T08:33:36;25.07;;;19.60;;
830;SDS011;397;50.564;7.272;2022-09-21T08:36:03;27.23;;;19.20;;
830;SDS011;397;50.564;7.272;2022-09-21T08:38:35;30.63;;;20.53;;
830;SDS011;397;50.564;7.272;2022-09-21T08:41:13;21.47;;;19.10;;
830;SDS011;397;50.564;7.272;2022-09-21T08:44:06;28.70;;;19.73;;
830;SDS011;397;50.564;7.272;2022-09-21T08:46:34;26.40;;;20.40;;
830;SDS011;397;50.564;7.272;2022-09-21T08:49:09;28.70;;;21.83;;
830;SDS011;397;50.564;7.272;2022-09-21T08:51:35;29.57;;;21.33;;
830;SDS011;397;50.564;7.272;2022-09-21T08:54:15;28.00;;;19.43;;
830;SDS011;397;50.564;7.272;2022-09-21T08:56:50;26.97;;;18.90;;
830;SDS011;397;50.564;7.272;2022-09-21T08:59:18;22.93;;;19.70;;
830;SDS011;397;50.564;7.272;2022-09-21T09:07:25;21.67;;;18.40;;
830;SDS011;397;50.564;7.272;2022-09-21T09:21:04;20.87;;;17.30;;
830;SDS011;397;50.564;7.272;2022-09-21T09:23:48;17.60;;;15.03;;
830;SDS011;397;50.564;7.272;2022-09-21T09:26:16;17.73;;;15.10;;
830;SDS011;397;50.564;7.272;2022-09-21T09:28:52;18.83;;;15.23;;
830;SDS011;397;50.564;7.272;2022-09-21T09:31:28;16.90;;;15.10;;
830;SDS011;397;50.564;7.272;2022-09-21T09:34:17;15.93;;;14.40;;
830;SDS011;397;50.564;7.272;2022-09-21T09:36:49;26.17;;;17.27;;
830;SDS011;397;50.564;7.272;2022-09-21T09:39:18;19.27;;;15.33;;
830;SDS011;397;50.564;7.272;2022-09-21T09:45:11;17.70;;;15.50;;
830;SDS011;397;50.564;7.272;2022-09-21T09:48:01;16.17;;;14.57;;
830;SDS011;397;50.564;7.272;2022-09-21T09:50:46;21.03;;;14.80;;
830;SDS011;397;50.564;7.272;2022-09-21T09:53:15;16.00;;;14.33;;
830;SDS011;397;50.564;7.272;2022-09-21T09:55:45;17.93;;;14.40;;
830;SDS011;397;50.564;7.272;2022-09-21T09:58:16;19.70;;;16.73;;
830;SDS011;397;50.564;7.272;2022-09-21T10:00:56;16.57;;;13.83;;
830;SDS011;397;50.564;7.272;2022-09-21T10:03:22;18.53;;;14.30;;
830;SDS011;397;50.564;7.272;2022-09-21T10:05:50;17.07;;;14.60;;
830;SDS011;397;50.564;7.272;2022-09-21T10:11:08;14.97;;;13.50;;
830;SDS011;397;50.564;7.272;2022-09-21T10:13:38;18.03;;;14.20;;
830;SDS011;397;50.564;7.272;2022-09-21T10:18:55;14.40;;;12.30;;
830;SDS011;397;50.564;7.272;2022-09-21T10:21:36;14.87;;;13.33;;
830;SDS011;397;50.564;7.272;2022-09-21T10:24:17;13.47;;;11.40;;
830;SDS011;397;50.564;7.272;2022-09-21T10:26:43;11.80;;;10.23;;
830;SDS011;397;50.564;7.272;2022-09-21T10:32:17;11.20;;;9.10;;
830;SDS011;397;50.564;7.272;2022-09-21T10:37:30;11.63;;;10.27;;
830;SDS011;397;50.564;7.272;2022-09-21T10:39:59;11.37;;;10.27;;
830;SDS011;397;50.564;7.272;2022-09-21T10:42:34;15.07;;;9.83;;
830;SDS011;397;50.564;7.272;2022-09-21T10:45:06;13.47;;;10.23;;
830;SDS011;397;50.564;7.272;2022-09-21T10:47:41;14.90;;;10.23;;
830;SDS011;397;50.564;7.272;2022-09-21T10:50:21;10.30;;;9.20;;
830;SDS011;397;50.564;7.272;2022-09-21T10:52:55;10.00;;;8.90;;
830;SDS011;397;50.564;7.272;2022-09-21T10:55:27;9.63;;;7.60;;
830;SDS011;397;50.564;7.272;2022-09-21T10:57:56;8.77;;;7.40;;
830;SDS011;397;50.564;7.272;2022-09-21T11:02:57;6.63;;;5.10;;
830;SDS011;397;50.564;7.272;2022-09-21T11:05:31;8.80;;;5.33;;
830;SDS011;397;50.564;7.272;2022-09-21T11:10:42;9.10;;;4.80;;
830;SDS011;397;50.564;7.272;2022-09-21T11:13:32;5.37;;;3.80;;
830;SDS011;397;50.564;7.272;2022-09-21T11:16:20;5.17;;;4.10;;
830;SDS011;397;50.564;7.272;2022-09-21T11:22:05;5.70;;;3.40;;
830;SDS011;397;50.564;7.272;2022-09-21T11:24:38;9.20;;;3.03;;
830;SDS011;397;50.564;7.272;2022-09-21T11:27:26;3.00;;;2.20;;
830;SDS011;397;50.564;7.272;2022-09-21T11:30:02;5.30;;;3.00;;
830;SDS011;397;50.564;7.272;2022-09-21T11:32:38;4.17;;;3.00;;
830;SDS011;397;50.564;7.272;2022-09-21T11:40:42;8.80;;;2.57;;
830;SDS011;397;50.564;7.272;2022-09-21T11:43:26;7.90;;;3.30;;
830;SDS011;397;50.564;7.272;2022-09-21T11:46:05;6.90;;;3.13;;
830;SDS011;397;50.564;7.272;2022-09-21T11:48:48;6.50;;;3.13;;
830;SDS011;397;50.564;7.272;2022-09-21T11:56:35;5.47;;;2.97;;
830;SDS011;397;50.564;7.272;2022-09-21T12:01:53;8.73;;;3.23;;
830;SDS011;397;50.564;7.272;2022-09-21T12:10:02;3.50;;;1.93;;
830;SDS011;397;50.564;7.272;2022-09-21T12:15:21;3.43;;;1.80;;
830;SDS011;397;50.564;7.272;2022-09-21T12:20:55;2.40;;;1.60;;
830;SDS011;397;50.564;7.272;2022-09-21T12:26:13;5.07;;;2.30;;
830;SDS011;397;50.564;7.272;2022-09-21T12:28:43;3.43;;;1.57;;
830;SDS011;397;50.564;7.272;2022-09-21T12:31:18;5.40;;;2.20;;
830;SDS011;397;50.564;7.272;2022-09-21T12:33:50;3.20;;;1.40;;
830;SDS011;397;50.564;7.272;2022-09-21T12:36:28;4.53;;;1.53;;
830;SDS011;397;50.564;7.272;2022-09-21T12:39:19;3.70;;;1.50;;
830;SDS011;397;50.564;7.272;2022-09-21T12:41:52;6.80;;;2.10;;
830;SDS011;397;50.564;7.272;2022-09-21T12:47:07;3.37;;;1.20;;
830;SDS011;397;50.564;7.272;2022-09-21T12:49:40;2.30;;;1.20;;
830;SDS011;397;50.564;7.272;2022-09-21T12:52:17;2.67;;;1.63;;
830;SDS011;397;50.564;7.272;2022-09-21T12:54:42;7.70;;;1.47;;
830;SDS011;397;50.564;7.272;2022-09-21T13:02:25;2.20;;;1.23;;
830;SDS011;397;50.564;7.272;2022-09-21T13:05:00;3.10;;;1.30;;
830;SDS011;397;50.564;7.272;2022-09-21T13:08:02;3.53;;;1.40;;
830;SDS011;397;50.564;7.272;2022-09-21T13:10:35;2.50;;;1.10;;
830;SDS011;397;50.564;7.272;2022-09-21T13:13:03;6.70;;;1.30;;
830;SDS011;397;50.564;7.272;2022-09-21T13:15:46;2.40;;;1.20;;
830;SDS011;397;50.564;7.272;2022-09-21T13:18:16;2.47;;;1.23;;
830;SDS011;397;50.564;7.272;2022-09-21T13:20:46;3.13;;;1.33;;
830;SDS011;397;50.564;7.272;2022-09-21T13:23:17;4.67;;;1.70;;
830;SDS011;397;50.564;7.272;2022-09-21T13:25:49;2.63;;;1.13;;
830;SDS011;397;50.564;7.272;2022-09-21T13:47:44;3.27;;;1.17;;
830;SDS011;397;50.564;7.272;2022-09-21T13:52:55;1.90;;;0.90;;
830;SDS011;397;50.564;7.272;2022-09-21T13:55:48;3.20;;;0.97;;
830;SDS011;397;50.564;7.272;2022-09-21T13:58:18;5.97;;;1.50;;
830;SDS011;397;50.564;7.272;2022-09-21T14:03:26;4.07;;;1.37;;
830;SDS011;397;50.564;7.272;2022-09-21T14:06:10;5.43;;;1.10;;
830;SDS011;397;50.564;7.272;2022-09-21T14:08:52;5.10;;;1.27;;
830;SDS011;397;50.564;7.272;2022-09-21T14:11:38;2.20;;;1.10;;
830;SDS011;397;50.564;7.272;2022-09-21T14:24:43;2.67;;;1.10;;
830;SDS011;397;50.564;7.272;2022-09-21T14:27:18;4.43;;;2.70;;
830;SDS011;397;50.564;7.272;2022-09-21T14:30:04;5.73;;;1.27;;
830;SDS011;397;50.564;7.272;2022-09-21T14:32:41;3.20;;;1.20;;
830;SDS011;397;50.564;7.272;2022-09-21T14:35:06;3.87;;;1.60;;
830;SDS011;397;50.564;7.272;2022-09-21T14:37:46;6.70;;;1.10;;
830;SDS011;397;50.564;7.272;2022-09-21T14:40:17;3.27;;;1.10;;
830;SDS011;397;50.564;7.272;2022-09-21T14:42:50;4.33;;;1.90;;
830;SDS011;397;50.564;7.272;2022-09-21T14:45:23;2.60;;;1.23;;
830;SDS011;397;50.564;7.272;2022-09-21T14:50:33;4.07;;;1.30;;
830;SDS011;397;50.564;7.272;2022-09-21T14:56:01;7.83;;;1.70;;
830;SDS011;397;50.564;7.272;2022-09-21T15:01:34;2.10;;;1.00;;
830;SDS011;397;50.564;7.272;2022-09-21T15:19:11;3.67;;;1.30;;
830;SDS011;397;50.564;7.272;2022-09-21T15:21:54;3.10;;;1.30;;
830;SDS011;397;50.564;7.272;2022-09-21T15:27:04;2.80;;;0.90;;
830;SDS011;397;50.564;7.272;2022-09-21T15:29:35;7.13;;;1.60;;
830;SDS011;397;50.564;7.272;2022-09-21T15:32:04;2.83;;;1.30;;
830;SDS011;397;50.564;7.272;2022-09-21T15:34:32;4.80;;;2.70;;
830;SDS011;397;50.564;7.272;2022-09-21T15:37:11;4.77;;;2.53;;
830;SDS011;397;50.564;7.272;2022-09-21T15:39:36;3.57;;;2.33;;
830;SDS011;397;50.564;7.272;2022-09-21T15:44:47;5.43;;;2.07;;
830;SDS011;397;50.564;7.272;2022-09-21T15:47:16;4.90;;;2.13;;
830;SDS011;397;50.564;7.272;2022-09-21T15:49:46;3.50;;;1.50;;
830;SDS011;397;50.564;7.272;2022-09-21T15:52:23;3.33;;;1.60;;
830;SDS011;397;50.564;7.272;2022-09-21T15:54:56;5.20;;;2.20;;
830;SDS011;397;50.564;7.272;2022-09-21T15:57:35;3.60;;;1.97;;
830;SDS011;397;50.564;7.272;2022-09-21T16:02:53;4.67;;;2.70;;
830;SDS011;397;50.564;7.272;2022-09-21T16:05:42;5.20;;;2.70;;
830;SDS011;397;50.564;7.272;2022-09-21T16:10:48;3.77;;;2.00;;
830;SDS011;397;50.564;7.272;2022-09-21T16:13:19;4.40;;;1.97;;
830;SDS011;397;50.564;7.272;2022-09-21T16:16:10;5.13;;;1.97;;
830;SDS011;397;50.564;7.272;2022-09-21T16:18:46;2.97;;;1.83;;
830;SDS011;397;50.564;7.272;2022-09-21T16:21:23;3.60;;;1.70;;
830;SDS011;397;50.564;7.272;2022-09-21T16:24:17;2.80;;;2.13;;
830;SDS011;397;50.564;7.272;2022-09-21T16:26:54;4.47;;;1.57;;
830;SDS011;397;50.564;7.272;2022-09-21T16:29:25;2.80;;;1.63;;
830;SDS011;397;50.564;7.272;2022-09-21T16:34:48;2.67;;;1.87;;
830;SDS011;397;50.564;7.272;2022-09-21T16:39:56;3.00;;;1.83;;
830;SDS011;397;50.564;7.272;2022-09-21T16:42:26;3.57;;;1.77;;
830;SDS011;397;50.564;7.272;2022-09-21T16:44:56;5.03;;;2.07;;
830;SDS011;397;50.564;7.272;2022-09-21T16:47:27;4.77;;;1.40;;
830;SDS011;397;50.564;7.272;2022-09-21T16:49:56;4.50;;;2.03;;
830;SDS011;397;50.564;7.272;2022-09-21T16:52:28;4.33;;;2.17;;
830;SDS011;397;50.564;7.272;2022-09-21T16:54:56;6.47;;;4.53;;
830;SDS011;397;50.564;7.272;2022-09-21T16:57:24;7.10;;;6.40;;
830;SDS011;397;50.564;7.272;2022-09-21T16:59:52;16.90;;;15.30;;
830;SDS011;397;50.564;7.272;2022-09-21T17:02:20;19.03;;;17.27;;
830;SDS011;397;50.564;7.272;2022-09-21T17:04:48;13.67;;;12.57;;
830;SDS011;397;50.564;7.272;2022-09-21T17:07:15;5.97;;;4.77;;
830;SDS011;397;50.564;7.272;2022-09-21T17:09:45;3.40;;;1.77;;
830;SDS011;397;50.564;7.272;2022-09-21T17:12:13;5.20;;;2.17;;
830;SDS011;397;50.564;7.272;2022-09-21T17:14:42;3.13;;;2.07;;
830;SDS011;397;50.564;7.272;2022-09-21T17:17:12;3.00;;;1.87;;
830;SDS011;397;50.564;7.272;2022-09-21T17:19:47;5.50;;;1.83;;
830;SDS011;397;50.564;7.272;2022-09-21T17:22:16;4.00;;;1.50;;
830;SDS011;397;50.564;7.272;2022-09-21T17:24:48;2.40;;;1.60;;
830;SDS011;397;50.564;7.272;2022-09-21T17:27:21;3.40;;;1.40;;
830;SDS011;397;50.564;7.272;2022-09-21T17:29:50;4.47;;;1.63;;
830;SDS011;397;50.564;7.272;2022-09-21T17:32:20;8.93;;;1.90;;
830;SDS011;397;50.564;7.272;2022-09-21T17:37:48;2.83;;;1.60;;
830;SDS011;397;50.564;7.272;2022-09-21T17:40:16;3.60;;;1.90;;
830;SDS011;397;50.564;7.272;2022-09-21T17:42:44;3.40;;;1.60;;
830;SDS011;397;50.564;7.272;2022-09-21T17:45:19;6.50;;;2.00;;
830;SDS011;397;50.564;7.272;2022-09-21T17:47:43;3.40;;;2.00;;
830;SDS011;397;50.564;7.272;2022-09-21T17:52:47;3.40;;;1.47;;
830;SDS011;397;50.564;7.272;2022-09-21T17:55:33;3.17;;;1.87;;
830;SDS011;397;50.564;7.272;2022-09-21T18:03:33;4.77;;;2.63;;
830;SDS011;397;50.564;7.272;2022-09-21T18:06:05;3.00;;;1.57;;
830;SDS011;397;50.564;7.272;2022-09-21T18:08:33;2.83;;;1.70;;
830;SDS011;397;50.564;7.272;2022-09-21T18:11:05;2.40;;;1.70;;
830;SDS011;397;50.564;7.272;2022-09-21T18:13:51;3.20;;;1.50;;
830;SDS011;397;50.564;7.272;2022-09-21T18:16:24;3.30;;;1.40;;
830;SDS011;397;50.564;7.272;2022-09-21T18:18:57;4.30;;;1.80;;
830;SDS011;397;50.564;7.272;2022-09-21T18:21:30;3.00;;;1.63;;
830;SDS011;397;50.564;7.272;2022-09-21T18:26:43;2.60;;;1.60;;
830;SDS011;397;50.564;7.272;2022-09-21T18:29:28;3.00;;;1.27;;
830;SDS011;397;50.564;7.272;2022-09-21T18:35:36;3.77;;;1.90;;
830;SDS011;397;50.564;7.272;2022-09-21T18:40:09;3.10;;;1.70;;
830;SDS011;397;50.564;7.272;2022-09-21T18:42:48;3.20;;;1.83;;
830;SDS011;397;50.564;7.272;2022-09-21T18:53:25;4.27;;;2.17;;
830;SDS011;397;50.564;7.272;2022-09-21T18:55:56;4.40;;;2.67;;
830;SDS011;397;50.564;7.272;2022-09-21T18:58:24;4.63;;;2.17;;
830;SDS011;397;50.564;7.272;2022-09-21T19:00:52;4.73;;;2.10;;
830;SDS011;397;50.564;7.272;2022-09-21T19:03:20;4.77;;;2.63;;
830;SDS011;397;50.564;7.272;2022-09-21T19:11:19;4.10;;;2.97;;
830;SDS011;397;50.564;7.272;2022-09-21T19:16:59;9.40;;;2.80;;
830;SDS011;397;50.564;7.272;2022-09-21T19:24:43;5.43;;;3.10;;
830;SDS011;397;50.564;7.272;2022-09-21T19:27:26;5.50;;;2.90;;
830;SDS011;397;50.564;7.272;2022-09-21T19:32:46;6.30;;;2.70;;
830;SDS011;397;50.564;7.272;2022-09-21T19:35:28;4.77;;;3.20;;
830;SDS011;397;50.564;7.272;2022-09-21T19:37:58;3.83;;;2.63;;
830;SDS011;397;50.564;7.272;2022-09-21T19:40:32;3.80;;;2.53;;
830;SDS011;397;50.564;7.272;2022-09-21T19:43:07;7.67;;;3.20;;
830;SDS011;397;50.564;7.272;2022-09-21T19:45:46;4.20;;;3.30;;
830;SDS011;397;50.564;7.272;2022-09-21T19:48:15;4.97;;;2.93;;